sim
Sign-in with your pilot id or email,
or register
Callsign
Passwort

Schedule Details

Flight Number: DLH2221
Departure: Toulouse Blagnac Airport (LFBO) at 17:30
Arrival: Munich Airport (EDDM) at 19:15
Route: Lufthansa Passenger Schedule. Enter filed route here before submitting Pirep.

Weather Information
Getting current METAR information for LFBO 010000Z AUTO 14003KT CAVOK 14/11 Q1010 NOSIG
Getting current METAR information for EDDM 010020Z 33001KT 1500 0500NE R08L/0550D R08R/0700N BCFG NSC 05/05 Q1011 NOSIG

Schedule Frequency

Route Map